createdAt,value
2019-01-20T00:01:25.186Z,92966.56
2019-01-20T00:07:01.989Z,92969.65
2019-01-20T00:13:19.200Z,92963.57
2019-01-20T00:16:27.735Z,92964.06
2019-01-20T00:18:55.910Z,92961.36
2019-01-20T00:21:23.978Z,92966.39
2019-01-20T00:24:32.075Z,92963.02
2019-01-20T00:27:40.274Z,92957.63
2019-01-20T00:33:57.549Z,92957.02
2019-01-20T00:45:13.806Z,92965.36
2019-01-20T00:47:42.457Z,92967.02
2019-01-20T00:50:50.986Z,92968.41
2019-01-20T00:53:19.226Z,92964.02
2019-01-20T00:58:56.232Z,92957.42
2019-01-20T01:01:24.050Z,92954.47
2019-01-20T01:03:52.483Z,92952.76
2019-01-20T01:07:00.955Z,92956.13
2019-01-20T01:09:29.487Z,92956.95
2019-01-20T01:12:37.655Z,92963.06
2019-01-20T01:15:46.162Z,92959.27
2019-01-20T01:18:14.352Z,92955.77
2019-01-20T01:20:42.802Z,92955.19
2019-01-20T01:23:10.806Z,92956.41
2019-01-20T01:29:14.365Z,92961.56
2019-01-20T01:31:42.180Z,92963.30
2019-01-20T01:34:09.647Z,92957.97
2019-01-20T01:37:18.141Z,92961.10
2019-01-20T01:42:41.572Z,92959.97
2019-01-20T01:45:50.697Z,92956.59
2019-01-20T01:51:27.807Z,92952.55
2019-01-20T01:53:56.186Z,92957.48
2019-01-20T01:56:24.346Z,92952.50
2019-01-20T01:58:52.772Z,92950.27
2019-01-20T02:01:21.048Z,92958.04
2019-01-20T02:03:49.211Z,92957.27
2019-01-20T02:06:16.603Z,92954.73
2019-01-20T02:09:25.058Z,92953.77
2019-01-20T02:11:53.219Z,92960.13
2019-01-20T02:14:21.338Z,92957.03
2019-01-20T02:17:29.828Z,92958.98
2019-01-20T02:19:58.322Z,92957.23
2019-01-20T02:22:26.023Z,92959.75
2019-01-20T02:28:08.462Z,92960.14
2019-01-20T02:30:36.529Z,92962.28
2019-01-20T02:33:04.767Z,92961.40
2019-01-20T02:35:32.823Z,92957.17
2019-01-20T02:38:40.957Z,92957.09
2019-01-20T02:41:54.997Z,92960.84
2019-01-20T02:44:19.129Z,92960.86
2019-01-20T02:49:54.417Z,92956.27
2019-01-20T02:52:22.186Z,92957.87
2019-01-20T02:54:50.386Z,92951.64
2019-01-20T02:57:18.510Z,92961.11
2019-01-20T03:02:55.598Z,92951.44
2019-01-20T03:06:03.946Z,92951.45
2019-01-20T03:09:12.392Z,92952.77
2019-01-20T03:11:40.532Z,92947.03
2019-01-20T03:14:08.622Z,92946.34
2019-01-20T03:16:36.022Z,92942.95
2019-01-20T03:22:23.511Z,92939.83
2019-01-20T03:24:51.606Z,92943.02
2019-01-20T03:27:20.207Z,92942.39
2019-01-20T03:29:48.610Z,92941.97
2019-01-20T03:32:16.691Z,92934.02
2019-01-20T03:35:03.975Z,92943.14
2019-01-20T03:37:32.117Z,92939.05
2019-01-20T03:39:59.982Z,92941.55
2019-01-20T03:45:42.721Z,92936.50
2019-01-20T03:48:10.833Z,92937.98
2019-01-20T03:53:47.724Z,92933.41
2019-01-20T03:56:16.099Z,92935.81
2019-01-20T03:59:24.593Z,92934.15
2019-01-20T04:01:53.202Z,92932.45
2019-01-20T04:13:26.307Z,92930.98
2019-01-20T04:16:34.780Z,92928.84
2019-01-20T04:19:02.915Z,92928.80
2019-01-20T04:21:31.287Z,92927.34
2019-01-20T04:23:59.756Z,92928.37
2019-01-20T04:26:27.923Z,92929.52
2019-01-20T04:28:56.002Z,92930.34
2019-01-20T04:31:24.496Z,92933.06
2019-01-20T04:33:52.559Z,92926.89
2019-01-20T04:36:20.640Z,92931.06
2019-01-20T04:38:48.461Z,92922.76
2019-01-20T04:41:17.005Z,92926.44
2019-01-20T04:47:34.217Z,92921.03
2019-01-20T04:50:02.410Z,92923.06
2019-01-20T04:55:39.569Z,92922.03
2019-01-20T05:04:32.621Z,92924.58
2019-01-20T05:10:36.144Z,92924.31
2019-01-20T05:13:04.829Z,92917.16
2019-01-20T05:15:33.007Z,92930.91
2019-01-20T05:18:01.427Z,92931.70
2019-01-20T05:20:30.067Z,92929.30
2019-01-20T05:22:58.470Z,92932.77
2019-01-20T05:25:26.693Z,92929.55
2019-01-20T05:27:54.727Z,92929.96
2019-01-20T05:31:03.924Z,92935.83
2019-01-20T05:33:32.405Z,92939.45
2019-01-20T05:36:00.593Z,92936.22
2019-01-20T05:42:04.814Z,92932.02
2019-01-20T05:47:41.487Z,92936.86
2019-01-20T05:53:19.083Z,92934.13
2019-01-20T05:56:27.161Z,92937.06
2019-01-20T05:58:55.550Z,92939.63
2019-01-20T06:02:04.045Z,92935.89
2019-01-20T06:05:12.119Z,92939.68
2019-01-20T06:10:36.248Z,92948.73
2019-01-20T06:13:04.422Z,92952.34
2019-01-20T06:16:12.228Z,92953.95
2019-01-20T06:19:20.412Z,92956.54
2019-01-20T06:21:48.984Z,92952.29
2019-01-20T06:24:16.714Z,92958.99
2019-01-20T06:26:45.238Z,92955.71
2019-01-20T06:29:13.718Z,92957.47
2019-01-20T06:31:41.458Z,92961.25
2019-01-20T06:34:09.552Z,92956.27
2019-01-20T06:36:37.526Z,92954.28
2019-01-20T06:39:47.939Z,92959.19
2019-01-20T06:43:01.774Z,92955.48
2019-01-20T06:45:26.826Z,92963.48
2019-01-20T06:47:54.996Z,92965.98
2019-01-20T06:50:23.464Z,92963.48
2019-01-20T06:53:31.555Z,92961.30
2019-01-20T06:55:59.756Z,92965.92
2019-01-20T06:59:08.230Z,92970.92
2019-01-20T07:02:16.713Z,92966.67
2019-01-20T07:05:24.976Z,92972.89
2019-01-20T07:07:53.575Z,92968.34
2019-01-20T07:10:21.822Z,92980.02
2019-01-20T07:16:39.021Z,92985.66
2019-01-20T07:19:26.606Z,92984.34
2019-01-20T07:21:54.914Z,92990.84
2019-01-20T07:24:23.109Z,92985.47
2019-01-20T07:30:26.707Z,92994.97
2019-01-20T07:33:34.927Z,92994.46
2019-01-20T07:38:57.849Z,92995.71
2019-01-20T07:41:26.441Z,92993.30
2019-01-20T07:43:54.607Z,92999.50
2019-01-20T07:49:17.282Z,93002.80
2019-01-20T07:52:25.383Z,93005.33
2019-01-20T07:54:53.543Z,93005.95
2019-01-20T08:03:14.187Z,93013.98
2019-01-20T08:09:17.270Z,93014.98
2019-01-20T08:14:53.823Z,93019.25
2019-01-20T08:17:21.585Z,93018.34
2019-01-20T08:20:29.843Z,93016.38
2019-01-20T08:23:37.970Z,93020.62
2019-01-20T08:26:06.377Z,93018.22
2019-01-20T08:28:34.867Z,93022.59
2019-01-20T08:34:51.947Z,93023.81
2019-01-20T08:41:10.048Z,93024.93
2019-01-20T08:43:38.873Z,93022.89
2019-01-20T08:46:59.092Z,93020.41
2019-01-20T08:49:26.904Z,93027.50
2019-01-20T08:52:35.393Z,93029.23
2019-01-20T08:55:43.933Z,93027.11
2019-01-20T08:58:12.183Z,93035.86
2019-01-20T09:00:40.672Z,93040.35
2019-01-20T09:03:09.789Z,93048.33
2019-01-20T09:05:37.164Z,93047.47
2019-01-20T09:08:45.683Z,93050.86
2019-01-20T09:11:14.186Z,93048.00
2019-01-20T09:13:42.480Z,93052.31
2019-01-20T09:16:11.047Z,93053.56
2019-01-20T09:19:19.344Z,93046.92
2019-01-20T09:22:27.852Z,93056.52
2019-01-20T09:24:56.435Z,93052.50
2019-01-20T09:28:04.984Z,93061.73
2019-01-20T09:30:33.568Z,93060.94
2019-01-20T09:33:42.096Z,93064.34
2019-01-20T09:36:10.332Z,93063.98
2019-01-20T09:41:47.189Z,93059.06
2019-01-20T09:44:15.718Z,93065.80
2019-01-20T09:46:44.209Z,93064.09
2019-01-20T09:49:11.618Z,93062.87
2019-01-20T09:52:19.806Z,93068.36
2019-01-20T09:55:28.376Z,93065.84
2019-01-20T09:57:56.650Z,93072.13
2019-01-20T10:01:05.474Z,93076.34
2019-01-20T10:06:28.628Z,93075.05
2019-01-20T10:12:45.366Z,93077.55
2019-01-20T10:15:53.787Z,93077.89
2019-01-20T10:18:21.822Z,93077.02
2019-01-20T10:20:50.021Z,93076.48
2019-01-20T10:23:17.925Z,93078.55
2019-01-20T10:25:46.414Z,93073.49
2019-01-20T10:28:17.043Z,93080.99
2019-01-20T10:30:44.881Z,93076.63
2019-01-20T10:33:12.771Z,93070.22
2019-01-20T10:35:42.859Z,93074.66
2019-01-20T10:43:24.489Z,93067.95
2019-01-20T10:45:53.173Z,93061.10
2019-01-20T10:48:21.493Z,93066.70
2019-01-20T10:50:49.658Z,93064.43
2019-01-20T10:53:18.199Z,93066.88
2019-01-20T10:55:46.737Z,93063.45
2019-01-20T10:58:14.969Z,93066.22
2019-01-20T11:00:43.268Z,93064.87
2019-01-20T11:03:11.329Z,93065.27
2019-01-20T11:05:39.856Z,93063.52
2019-01-20T11:08:07.313Z,93069.41
2019-01-20T11:10:35.961Z,93072.97
2019-01-20T11:13:04.158Z,93074.98
2019-01-20T11:15:32.635Z,93073.12
2019-01-20T11:18:00.809Z,93073.95
2019-01-20T11:20:29.357Z,93073.82
2019-01-20T11:22:57.198Z,93074.26
2019-01-20T11:25:44.360Z,93067.45
2019-01-20T11:28:12.504Z,93071.09
2019-01-20T11:30:40.239Z,93070.13
2019-01-20T11:33:08.619Z,93069.47
2019-01-20T11:35:36.929Z,93073.60
2019-01-20T11:38:05.275Z,93065.69
2019-01-20T11:41:13.829Z,93067.30
2019-01-20T11:43:41.958Z,93064.81
2019-01-20T11:46:10.050Z,93065.78
2019-01-20T11:48:38.515Z,93068.20
2019-01-20T11:51:06.964Z,93065.03
2019-01-20T11:53:34.670Z,93064.45
2019-01-20T11:56:03.270Z,93061.92
2019-01-20T11:58:31.387Z,93050.14
2019-01-20T12:00:59.528Z,93048.56
2019-01-20T12:03:27.311Z,93049.54
2019-01-20T12:05:55.832Z,93048.70
2019-01-20T12:08:30.406Z,93050.83
2019-01-20T12:10:54.308Z,93058.23
2019-01-20T12:13:31.269Z,93054.14
2019-01-20T12:15:59.349Z,93047.55
2019-01-20T12:18:27.134Z,93044.00
2019-01-20T12:20:55.587Z,93044.60
2019-01-20T12:23:23.773Z,93037.84
2019-01-20T12:25:51.933Z,93040.38
2019-01-20T12:28:20.138Z,93042.23
2019-01-20T12:30:48.660Z,93045.30
2019-01-20T12:33:17.227Z,93044.83
2019-01-20T12:38:54.180Z,93044.70
2019-01-20T12:41:22.455Z,93045.61
2019-01-20T12:43:50.412Z,93040.88
2019-01-20T12:46:58.853Z,93042.03
2019-01-20T12:50:06.688Z,93051.47
2019-01-20T12:52:35.098Z,93050.72
2019-01-20T12:57:58.717Z,93047.09
2019-01-20T13:00:27.520Z,93053.88
2019-01-20T13:03:35.999Z,93047.77
2019-01-20T13:06:04.411Z,93052.58
2019-01-20T13:09:12.632Z,93043.70
2019-01-20T13:14:48.770Z,93046.35
2019-01-20T13:17:17.281Z,93039.50
2019-01-20T13:20:25.179Z,93037.95
2019-01-20T13:23:33.732Z,93038.02
2019-01-20T13:26:01.973Z,93033.22
2019-01-20T13:32:18.935Z,93034.78
2019-01-20T13:34:46.740Z,93032.44
2019-01-20T13:37:15.366Z,93030.22
2019-01-20T13:42:38.638Z,93027.83
2019-01-20T13:45:47.704Z,93037.50
2019-01-20T13:48:56.259Z,93047.25
2019-01-20T13:54:20.433Z,93046.93
2019-01-20T13:56:48.498Z,93051.28
2019-01-20T13:59:56.710Z,93052.30
2019-01-20T14:03:04.904Z,93055.70
2019-01-20T14:05:33.568Z,93057.61
2019-01-20T14:08:01.787Z,93058.05
2019-01-20T14:11:10.295Z,93060.38
2019-01-20T14:14:18.757Z,93055.39
2019-01-20T14:20:22.831Z,93064.79
2019-01-20T14:23:31.396Z,93072.42
2019-01-20T14:25:59.839Z,93071.30
2019-01-20T14:28:27.639Z,93078.73
2019-01-20T14:30:55.936Z,93078.97
2019-01-20T14:33:24.394Z,93082.95
2019-01-20T14:35:52.684Z,93083.55
2019-01-20T14:38:20.968Z,93081.58
2019-01-20T14:40:49.102Z,93089.41
2019-01-20T14:43:17.713Z,93085.73
2019-01-20T14:45:46.357Z,93090.42
2019-01-20T14:48:14.990Z,93090.86
2019-01-20T14:50:43.293Z,93090.58
2019-01-20T14:53:11.438Z,93095.30
2019-01-20T14:55:39.725Z,93099.33
2019-01-20T14:58:07.948Z,93102.48
2019-01-20T15:00:36.847Z,93102.57
2019-01-20T15:03:05.716Z,93108.05
2019-01-20T15:05:33.926Z,93106.36
2019-01-20T15:08:42.075Z,93104.00
2019-01-20T15:11:09.865Z,93109.56
2019-01-20T15:16:33.379Z,93107.62
2019-01-20T15:19:41.952Z,93111.00
2019-01-20T15:22:10.443Z,93114.36
2019-01-20T15:24:38.859Z,93109.69
2019-01-20T15:27:07.344Z,93114.28
2019-01-20T15:29:35.574Z,93117.23
2019-01-20T15:32:03.268Z,93115.21
2019-01-20T15:34:31.146Z,93123.23
2019-01-20T15:36:59.216Z,93124.52
2019-01-20T15:39:27.410Z,93128.77
2019-01-20T15:41:55.558Z,93129.68
2019-01-20T15:44:23.775Z,93130.15
2019-01-20T15:46:51.700Z,93131.47
2019-01-20T15:49:19.631Z,93139.07
2019-01-20T15:51:47.901Z,93144.96
2019-01-20T15:54:16.048Z,93145.80
2019-01-20T15:56:44.671Z,93149.17
2019-01-20T15:59:12.895Z,93147.52
2019-01-20T16:01:41.486Z,93150.91
2019-01-20T16:04:09.616Z,93156.82
2019-01-20T16:06:37.884Z,93153.95
2019-01-20T16:09:47.969Z,93159.44
2019-01-20T16:12:16.004Z,93166.57
2019-01-20T16:14:44.605Z,93164.89
2019-01-20T16:17:52.827Z,93162.83
2019-01-20T16:20:21.525Z,93164.52
2019-01-20T16:25:58.777Z,93171.69
2019-01-20T16:28:26.894Z,93169.59
2019-01-20T16:33:28.732Z,93172.15
2019-01-20T16:36:37.236Z,93174.66
2019-01-20T16:39:47.611Z,93176.77
2019-01-20T16:42:15.871Z,93186.84
2019-01-20T16:44:44.336Z,93189.80
2019-01-20T16:47:12.911Z,93193.18
2019-01-20T16:49:40.369Z,93191.52
2019-01-20T16:52:08.235Z,93193.63
2019-01-20T16:55:16.769Z,93195.70
2019-01-20T16:57:44.515Z,93200.33
2019-01-20T17:02:52.958Z,93205.38
2019-01-20T17:05:26.492Z,93207.47
2019-01-20T17:07:51.721Z,93201.61
2019-01-20T17:10:21.704Z,93210.84
2019-01-20T17:12:49.984Z,93209.16
2019-01-20T17:15:20.170Z,93218.37
2019-01-20T17:17:48.531Z,93213.34
2019-01-20T17:20:57.590Z,93216.73
2019-01-20T17:23:26.332Z,93221.32
2019-01-20T17:25:54.574Z,93220.93
2019-01-20T17:28:22.441Z,93222.58
2019-01-20T17:30:50.920Z,93220.91
2019-01-20T17:33:19.100Z,93232.67
2019-01-20T17:35:47.303Z,93232.66
2019-01-20T17:38:15.449Z,93230.96
2019-01-20T17:40:44.154Z,93231.41
2019-01-20T17:43:12.786Z,93236.87
2019-01-20T17:45:47.557Z,93239.80
2019-01-20T17:48:12.845Z,93241.05
2019-01-20T17:51:22.009Z,93242.73
2019-01-20T17:53:52.109Z,93251.55
2019-01-20T17:56:20.826Z,93250.30
2019-01-20T17:58:49.033Z,93254.05
2019-01-20T18:01:17.436Z,93256.58
2019-01-20T18:03:45.836Z,93260.34
2019-01-20T18:09:49.078Z,93259.52
2019-01-20T18:12:17.436Z,93261.20
2019-01-20T18:14:45.711Z,93261.20
2019-01-20T18:17:13.650Z,93257.42
2019-01-20T18:19:41.410Z,93260.33
2019-01-20T18:22:09.637Z,93267.89
2019-01-20T18:24:37.666Z,93265.80
2019-01-20T18:27:06.350Z,93267.48
2019-01-20T18:29:34.177Z,93266.20
2019-01-20T18:32:02.492Z,93270.81
2019-01-20T18:34:30.972Z,93268.30
2019-01-20T18:36:59.200Z,93274.17
2019-01-20T18:39:27.320Z,93272.52
2019-01-20T18:41:55.875Z,93275.45
2019-01-20T18:44:24.341Z,93276.28
2019-01-20T18:46:52.363Z,93275.03
2019-01-20T18:49:20.430Z,93282.15
2019-01-20T18:51:49.220Z,93279.22
2019-01-20T18:54:17.815Z,93285.51
2019-01-20T18:56:46.069Z,93288.86
2019-01-20T18:59:14.235Z,93284.24
2019-01-20T19:01:55.526Z,93291.80
2019-01-20T19:04:23.945Z,93285.11
2019-01-20T19:06:52.533Z,93282.58
2019-01-20T19:09:21.045Z,93287.19
2019-01-20T19:14:24.142Z,93286.77
2019-01-20T19:17:32.731Z,93291.38
2019-01-20T19:19:59.786Z,93292.64
2019-01-20T19:25:13.273Z,93302.72
2019-01-20T19:27:31.921Z,93303.53
2019-01-20T19:30:00.509Z,93303.98
2019-01-20T19:32:29.084Z,93303.54
2019-01-20T19:35:16.314Z,93309.84
2019-01-20T19:40:19.263Z,93311.92
2019-01-20T19:42:48.004Z,93315.28
2019-01-20T19:45:56.714Z,93322.83
2019-01-20T19:49:06.039Z,93319.91
2019-01-20T19:51:33.862Z,93319.91
2019-01-20T19:54:42.484Z,93324.53
2019-01-20T19:57:09.864Z,93327.06
2019-01-20T20:02:32.689Z,93326.20
2019-01-20T20:05:00.992Z,93334.59
2019-01-20T20:10:38.484Z,93337.53
2019-01-20T20:13:06.698Z,93334.19
2019-01-20T20:15:35.274Z,93343.41
2019-01-20T20:18:03.102Z,93343.83
2019-01-20T20:20:31.606Z,93351.77
2019-01-20T20:23:00.197Z,93345.47
2019-01-20T20:28:23.378Z,93350.93
2019-01-20T20:30:51.882Z,93356.80
2019-01-20T20:33:20.322Z,93349.67
2019-01-20T20:35:48.708Z,93355.95
2019-01-20T20:38:17.009Z,93360.13
2019-01-20T20:40:46.228Z,93356.36
2019-01-20T20:43:14.492Z,93357.61
2019-01-20T20:45:43.058Z,93366.02
2019-01-20T20:48:11.095Z,93365.16
2019-01-20T20:50:39.880Z,93361.84
2019-01-20T20:53:49.658Z,93368.55
2019-01-20T20:56:18.096Z,93368.98
2019-01-20T20:58:46.784Z,93368.55
2019-01-20T21:01:15.164Z,93368.95
2019-01-20T21:03:43.102Z,93371.05
2019-01-20T21:06:10.696Z,93369.36
2019-01-20T21:08:39.431Z,93372.31
2019-01-20T21:11:07.605Z,93366.83
2019-01-20T21:13:35.690Z,93369.34
2019-01-20T21:16:04.241Z,93373.53
2019-01-20T21:18:32.518Z,93371.82
2019-01-20T21:21:00.807Z,93373.09
2019-01-20T21:23:29.682Z,93379.78
2019-01-20T21:29:07.571Z,93377.30
2019-01-20T21:34:30.568Z,93385.22
2019-01-20T21:36:58.945Z,93388.57
2019-01-20T21:39:27.214Z,93388.97
2019-01-20T21:44:35.556Z,93395.69
2019-01-20T21:47:04.173Z,93391.88
2019-01-20T21:49:32.642Z,93395.63
2019-01-20T21:52:01.126Z,93397.33
2019-01-20T21:54:29.782Z,93398.55
2019-01-20T21:56:58.203Z,93407.33
2019-01-20T21:59:27.040Z,93403.13
2019-01-20T22:02:14.663Z,93407.70
2019-01-20T22:04:42.752Z,93412.30
2019-01-20T22:07:10.982Z,93419.86
2019-01-20T22:09:40.138Z,93416.95
2019-01-20T22:12:08.675Z,93421.59
2019-01-20T22:14:37.369Z,93424.13
2019-01-20T22:17:45.590Z,93423.29
2019-01-20T22:20:33.995Z,93429.14
2019-01-20T22:23:21.490Z,93435.84
2019-01-20T22:25:49.857Z,93437.45
2019-01-20T22:28:18.091Z,93442.49
2019-01-20T22:31:06.049Z,93443.33
2019-01-20T22:34:14.516Z,93444.17
2019-01-20T22:36:43.091Z,93447.03
2019-01-20T22:39:30.081Z,93451.19
2019-01-20T22:41:59.288Z,93448.22
2019-01-20T22:47:24.733Z,93447.81
2019-01-20T22:50:33.201Z,93448.67
2019-01-20T22:53:02.005Z,93447.81
2019-01-20T22:56:10.445Z,93450.34
2019-01-20T22:59:18.912Z,93448.69
2019-01-20T23:01:46.867Z,93453.77
2019-01-20T23:04:14.242Z,93453.28
2019-01-20T23:06:42.165Z,93448.26
2019-01-20T23:09:10.151Z,93455.38
2019-01-20T23:11:38.739Z,93461.19
2019-01-20T23:14:06.971Z,93457.83
2019-01-20T23:16:35.411Z,93463.64
2019-01-20T23:19:03.955Z,93458.59
2019-01-20T23:21:32.149Z,93456.50
2019-01-20T23:24:00.202Z,93455.68
2019-01-20T23:26:28.722Z,93458.66
2019-01-20T23:28:56.836Z,93457.39
2019-01-20T23:31:24.963Z,93459.89
2019-01-20T23:37:01.350Z,93457.38
2019-01-20T23:39:29.547Z,93459.40
2019-01-20T23:42:37.647Z,93463.64
2019-01-20T23:45:46.082Z,93458.14
2019-01-20T23:51:08.640Z,93461.84
2019-01-20T23:53:36.850Z,93458.83
2019-01-20T23:56:05.220Z,93456.34
2019-01-20T23:58:33.645Z,93457.66
